Time;durP1;ratioP1;P1;durP2;ratioP2;P2;SDS_P1;SDS_P2;PMS_P1;PMS_P2;Temp;Humidity;BMP_temperature;BMP_pressure;BME280_temperature;BME280_humidity;BME280_pressure;Samples;Min_cycle;Max_cycle;Signal;HPM_P1;HPM_P2
2022/08/18 00:01:35;;;;;;;0.77;0.77;;;25.20;99.90;;;;;;4446011;32;20123;-66
2022/08/18 00:04:02;;;;;;;4.80;1.50;;;25.20;99.90;;;;;;4445851;32;20062;-66
2022/08/18 00:06:28;;;;;;;0.37;0.37;;;25.10;99.90;;;;;;4443924;32;20133;-66
2022/08/18 00:08:54;;;;;;;0.70;0.50;;;25.10;99.90;;;;;;4446030;32;20116;-66
2022/08/18 00:11:20;;;;;;;0.50;0.50;;;25.10;99.90;;;;;;4446575;32;20435;-66
2022/08/18 00:13:45;;;;;;;0.47;0.47;;;25.00;99.90;;;;;;4444627;32;20098;-66
2022/08/18 00:16:10;;;;;;;0.65;0.50;;;25.00;99.90;;;;;;4446174;32;20120;-67
2022/08/18 00:18:36;;;;;;;1.30;0.82;;;25.00;99.90;;;;;;4445100;32;20065;-67
2022/08/18 00:21:01;;;;;;;1.65;0.95;;;25.00;99.90;;;;;;4446207;32;20120;-67
2022/08/18 00:23:31;;;;;;;0.62;0.47;;;24.90;99.90;;;;;;4443801;32;20069;-67
2022/08/18 00:25:59;;;;;;;0.70;0.70;;;24.90;99.90;;;;;;4445155;32;20135;-67
2022/08/18 00:28:24;;;;;;;0.30;0.30;;;24.90;99.90;;;;;;4445779;32;20446;-67
2022/08/18 00:30:50;;;;;;;2.08;0.73;;;24.90;99.90;;;;;;4444404;32;20069;-66
2022/08/18 00:33:15;;;;;;;1.08;0.60;;;24.80;99.90;;;;;;4445352;32;20069;-66
2022/08/18 00:35:40;;;;;;;0.50;0.50;;;24.80;99.90;;;;;;4443286;32;20131;-66
2022/08/18 00:38:07;;;;;;;0.65;0.65;;;24.90;99.90;;;;;;4444517;32;20074;-66
2022/08/18 00:40:39;;;;;;;0.50;0.50;;;24.90;99.90;;;;;;4445103;32;20397;-66
2022/08/18 00:43:10;;;;;;;0.65;0.60;;;24.90;99.90;;;;;;4445418;32;20078;-66
2022/08/18 00:45:41;;;;;;;0.80;0.60;;;24.80;99.90;;;;;;4445427;32;20073;-68
2022/08/18 00:48:09;;;;;;;0.65;0.50;;;24.70;99.90;;;;;;4459261;32;20601;-67
2022/08/18 00:50:50;;;;;;;0.43;0.43;;;24.70;99.90;;;;;;4458875;32;20076;-67
2022/08/18 00:53:28;;;;;;;1.12;0.40;;;24.70;99.90;;;;;;4446882;32;20447;-67
2022/08/18 00:55:57;;;;;;;3.22;0.77;;;24.70;99.90;;;;;;4447715;32;20078;-68
2022/08/18 00:58:29;;;;;;;0.75;0.55;;;24.70;99.90;;;;;;4444493;32;20112;-68
2022/08/18 01:00:55;;;;;;;2.55;1.25;;;24.60;99.90;;;;;;4443966;32;20081;-68
2022/08/18 01:03:22;;;;;;;0.30;0.30;;;24.70;99.90;;;;;;4444690;32;20549;-67
2022/08/18 01:05:56;;;;;;;0.50;0.50;;;24.70;99.90;;;;;;4441787;32;20504;-68
2022/08/18 01:08:22;;;;;;;0.55;0.55;;;24.60;99.90;;;;;;4444185;32;20057;-67
2022/08/18 01:10:48;;;;;;;0.60;0.60;;;24.60;99.90;;;;;;4443125;32;20060;-67
2022/08/18 01:13:14;;;;;;;0.60;0.60;;;24.50;99.90;;;;;;4445415;32;20082;-67
2022/08/18 01:15:40;;;;;;;0.68;0.62;;;24.50;99.90;;;;;;4445923;32;20065;-67
2022/08/18 01:22:09;;;;;;;0.25;0.25;;;24.50;99.90;;;;;;4432894;32;20089;-68
2022/08/18 01:23:56;;;;;;;0.52;0.47;;;24.50;99.90;;;;;;4442564;32;20445;-67
2022/08/18 01:26:23;;;;;;;2.03;0.68;;;24.50;99.90;;;;;;4442966;32;20120;-68
2022/08/18 01:28:48;;;;;;;3.20;1.10;;;24.50;99.90;;;;;;4448330;32;20100;-68
2022/08/18 01:31:36;;;;;;;0.85;0.65;;;24.40;99.90;;;;;;4459600;32;20077;-68
2022/08/18 01:34:03;;;;;;;3.17;0.70;;;24.40;99.90;;;;;;4458321;32;20114;-68
2022/08/18 01:36:29;;;;;;;0.98;0.57;;;24.50;99.90;;;;;;4456396;32;20127;-67
2022/08/18 01:38:55;;;;;;;1.15;0.70;;;24.50;99.90;;;;;;4458465;32;20057;-67
2022/08/18 01:41:21;;;;;;;0.40;0.40;;;24.50;99.90;;;;;;4459829;32;20094;-67
2022/08/18 01:43:48;;;;;;;0.60;0.60;;;24.50;99.90;;;;;;4459542;32;20116;-67
2022/08/18 01:46:18;;;;;;;1.75;0.60;;;24.40;99.90;;;;;;4460379;32;20077;-67
2022/08/18 01:48:44;;;;;;;1.52;0.93;;;24.40;99.90;;;;;;4459600;32;20464;-67
2022/08/18 01:51:11;;;;;;;0.52;0.50;;;24.30;99.90;;;;;;4459493;32;20076;-67
2022/08/18 01:53:37;;;;;;;0.60;0.60;;;24.30;99.90;;;;;;4459941;32;20435;-67
2022/08/18 01:56:04;;;;;;;0.45;0.45;;;24.30;99.90;;;;;;4455903;32;20080;-67
2022/08/18 01:58:32;;;;;;;3.33;1.00;;;24.20;99.90;;;;;;4461098;32;20414;-67
2022/08/18 02:01:00;;;;;;;0.47;0.47;;;24.30;99.90;;;;;;4459894;32;20089;-67
2022/08/18 02:03:32;;;;;;;0.95;0.93;;;24.20;99.90;;;;;;4445138;32;20077;-67
2022/08/18 02:06:00;;;;;;;0.32;0.32;;;24.10;99.90;;;;;;4456250;32;20060;-67
2022/08/18 02:08:26;;;;;;;0.62;0.62;;;24.10;99.90;;;;;;4459077;32;20057;-67
2022/08/18 02:10:52;;;;;;;0.60;0.60;;;24.00;99.90;;;;;;4461448;32;20115;-67
2022/08/18 02:13:17;;;;;;;1.30;0.40;;;24.00;99.90;;;;;;4462275;32;20072;-67
2022/08/18 02:15:43;;;;;;;0.55;0.50;;;24.00;99.90;;;;;;4461916;32;20068;-67
2022/08/18 02:18:14;;;;;;;1.42;1.00;;;23.90;99.90;;;;;;4461149;32;20073;-67
2022/08/18 02:20:39;;;;;;;;;;;23.80;99.90;;;;;;4460815;32;20422;-67
2022/08/18 02:23:05;;;;;;;1.75;1.08;;;23.70;99.90;;;;;;4462668;32;19944;-66
2022/08/18 02:25:31;;;;;;;2.65;1.15;;;23.70;99.90;;;;;;4460128;32;20434;-67
2022/08/18 02:27:56;;;;;;;1.62;0.85;;;23.60;99.90;;;;;;4462314;32;20130;-67
2022/08/18 02:30:22;;;;;;;2.20;1.27;;;23.60;99.90;;;;;;4462504;32;20077;-68
2022/08/18 02:32:48;;;;;;;0.50;0.50;;;23.50;99.90;;;;;;4461313;32;20520;-67
2022/08/18 02:35:14;;;;;;;3.80;1.98;;;23.50;99.90;;;;;;4447633;32;20504;-67
2022/08/18 02:37:41;;;;;;;0.60;0.60;;;23.40;99.90;;;;;;4460995;32;20081;-67
2022/08/18 02:40:07;;;;;;;2.00;0.88;;;23.30;99.90;;;;;;4461467;32;20430;-67
2022/08/18 02:42:33;;;;;;;0.57;0.57;;;23.20;99.90;;;;;;4462762;32;20119;-67
2022/08/18 02:44:58;;;;;;;1.42;1.00;;;23.10;99.90;;;;;;4459672;32;20615;-67
2022/08/18 02:47:24;;;;;;;0.40;0.40;;;23.10;99.90;;;;;;4445889;32;20061;-67
2022/08/18 02:49:49;;;;;;;0.52;0.50;;;23.10;99.90;;;;;;4447182;32;20177;-68
2022/08/18 02:52:16;;;;;;;3.92;0.60;;;23.10;99.90;;;;;;4445861;32;20123;-68
2022/08/18 02:54:42;;;;;;;0.60;0.60;;;22.90;99.90;;;;;;4445944;32;20070;-67
2022/08/18 02:57:10;;;;;;;0.45;0.45;;;22.70;99.90;;;;;;4454791;32;20064;-67
2022/08/18 02:59:38;;;;;;;0.85;0.75;;;22.70;99.90;;;;;;4461185;32;20069;-67
2022/08/18 03:02:06;;;;;;;0.40;0.40;;;22.60;99.90;;;;;;4460075;32;20177;-67
2022/08/18 03:04:32;;;;;;;1.45;0.70;;;22.60;99.90;;;;;;4461622;32;20119;-67
2022/08/18 03:07:01;;;;;;;0.55;0.55;;;22.50;99.90;;;;;;4459639;32;20072;-68
2022/08/18 03:09:28;;;;;;;0.62;0.62;;;22.50;99.90;;;;;;4461484;32;20391;-68
2022/08/18 03:11:53;;;;;;;0.43;0.43;;;22.40;99.90;;;;;;4460365;32;20072;-67
2022/08/18 03:14:19;;;;;;;0.30;0.30;;;22.40;99.90;;;;;;4462035;32;20084;-67
2022/08/18 03:16:46;;;;;;;0.47;0.47;;;22.40;99.90;;;;;;4460901;32;20077;-67
2022/08/18 03:19:15;;;;;;;0.50;0.50;;;22.40;99.90;;;;;;4460548;32;20179;-67
2022/08/18 03:21:42;;;;;;;1.67;1.33;;;22.40;99.90;;;;;;4461952;32;20056;-67
2022/08/18 03:24:08;;;;;;;0.80;0.80;;;22.30;99.90;;;;;;4447361;32;20073;-67
2022/08/18 03:26:33;;;;;;;0.60;0.60;;;22.30;99.90;;;;;;4450603;32;20122;-67
2022/08/18 03:29:00;;;;;;;1.10;1.00;;;22.30;99.90;;;;;;4446401;32;20068;-67
2022/08/18 03:31:28;;;;;;;0.60;0.60;;;22.30;99.90;;;;;;4445304;32;20070;-67
2022/08/18 03:33:55;;;;;;;0.52;0.52;;;22.30;99.90;;;;;;4444598;32;20081;-67
2022/08/18 03:36:23;;;;;;;2.90;0.60;;;22.30;99.90;;;;;;4443107;32;20111;-67
2022/08/18 03:38:50;;;;;;;0.55;0.55;;;22.30;99.90;;;;;;4444228;32;20132;-67
2022/08/18 03:41:19;;;;;;;2.25;0.60;;;22.40;99.90;;;;;;4445429;32;20120;-67
2022/08/18 03:43:44;;;;;;;2.00;0.82;;;22.40;99.90;;;;;;4443681;32;20074;-67
2022/08/18 03:46:13;;;;;;;0.95;0.80;;;22.30;99.90;;;;;;4445475;32;20123;-67
2022/08/18 03:48:41;;;;;;;2.08;1.27;;;22.30;99.90;;;;;;4446120;32;20081;-67
2022/08/18 03:51:12;;;;;;;0.93;0.60;;;22.30;99.90;;;;;;4444818;32;20066;-67
2022/08/18 03:53:38;;;;;;;1.02;0.73;;;22.30;99.90;;;;;;4445591;32;20069;-67
2022/08/18 03:56:14;;;;;;;1.87;0.98;;;22.40;99.90;;;;;;4444367;32;20102;-67
2022/08/18 03:58:41;;;;;;;2.53;1.17;;;22.40;99.90;;;;;;4445158;32;20062;-67
2022/08/18 04:01:06;;;;;;;0.82;0.60;;;22.50;99.90;;;;;;4445631;32;20061;-67
2022/08/18 04:03:32;;;;;;;0.57;0.57;;;22.50;99.90;;;;;;4444600;32;20097;-67
2022/08/18 04:05:57;;;;;;;1.23;0.68;;;22.40;99.90;;;;;;4444059;32;20081;-67
2022/08/18 04:08:23;;;;;;;20.17;1.40;;;22.30;99.90;;;;;;4446407;32;20068;-67
2022/08/18 04:10:48;;;;;;;0.85;0.82;;;22.30;99.90;;;;;;4445300;32;20415;-67
2022/08/18 04:13:13;;;;;;;2.60;1.35;;;22.30;99.90;;;;;;4445812;32;20085;-67
2022/08/18 04:15:39;;;;;;;0.50;0.50;;;22.30;99.90;;;;;;4445459;32;20061;-67
2022/08/18 04:18:07;;;;;;;4.57;1.60;;;22.30;99.90;;;;;;4444602;32;20583;-67
2022/08/18 04:20:33;;;;;;;1.08;0.88;;;22.40;99.90;;;;;;4446352;32;20496;-67
2022/08/18 04:22:59;;;;;;;1.92;1.00;;;22.40;99.90;;;;;;4443802;32;20064;-67
2022/08/18 04:25:25;;;;;;;0.40;0.40;;;22.30;99.90;;;;;;4456545;32;20176;-67
2022/08/18 04:27:56;;;;;;;1.35;1.02;;;22.20;99.90;;;;;;4444091;32;20081;-67
2022/08/18 04:30:22;;;;;;;4.18;0.90;;;22.30;99.90;;;;;;4445729;32;20066;-67
2022/08/18 04:32:49;;;;;;;1.58;1.08;;;22.30;99.90;;;;;;4444500;32;20078;-67
2022/08/18 04:35:14;;;;;;;0.50;0.50;;;22.20;99.90;;;;;;4444834;32;20132;-68
2022/08/18 04:37:40;;;;;;;0.85;0.85;;;22.20;99.90;;;;;;4444918;32;20184;-68
2022/08/18 04:40:06;;;;;;;1.52;0.90;;;22.20;99.90;;;;;;4444777;32;20456;-68
2022/08/18 04:42:31;;;;;;;1.50;0.98;;;22.20;99.90;;;;;;4444557;32;20078;-68
2022/08/18 04:44:57;;;;;;;0.68;0.68;;;22.30;99.90;;;;;;4445213;32;20069;-68
2022/08/18 04:47:23;;;;;;;0.60;0.60;;;22.40;99.90;;;;;;4457950;32;20115;-68
2022/08/18 04:49:49;;;;;;;0.40;0.40;;;22.40;99.90;;;;;;4459029;32;20068;-68
2022/08/18 04:53:47;;;;;;;3.75;1.55;;;22.50;99.90;;;;;;4461077;32;20061;-68
2022/08/18 04:55:02;;;;;;;20.40;0.82;;;22.50;99.90;;;;;;4448088;32;20138;-68
2022/08/18 04:57:28;;;;;;;0.77;0.77;;;22.40;99.90;;;;;;4456775;32;20069;-68
2022/08/18 04:59:53;;;;;;;1.65;1.10;;;22.50;99.90;;;;;;4453223;32;20064;-68
2022/08/18 05:02:20;;;;;;;1.33;1.05;;;22.50;99.90;;;;;;4442375;32;20512;-68
2022/08/18 05:04:46;;;;;;;0.43;0.43;;;22.50;99.90;;;;;;4442436;32;20077;-68
2022/08/18 05:07:14;;;;;;;0.55;0.55;;;22.60;99.90;;;;;;4441014;32;20081;-68
2022/08/18 05:09:41;;;;;;;0.50;0.50;;;22.70;99.90;;;;;;4439684;32;20081;-68
2022/08/18 05:12:08;;;;;;;0.73;0.73;;;22.70;99.90;;;;;;4456177;32;20077;-68
2022/08/18 05:14:34;;;;;;;1.02;0.75;;;22.60;99.90;;;;;;4447383;32;20135;-68
2022/08/18 05:17:01;;;;;;;1.70;0.88;;;22.50;99.90;;;;;;4457692;32;20069;-68
2022/08/18 05:19:27;;;;;;;0.73;0.70;;;22.50;99.90;;;;;;4434946;32;20060;-68
2022/08/18 05:21:54;;;;;;;1.23;0.68;;;22.50;99.90;;;;;;4460893;32;20143;-67
2022/08/18 05:24:20;;;;;;;1.55;1.08;;;22.60;99.90;;;;;;4458243;32;20079;-67
2022/08/18 05:26:47;;;;;;;0.47;0.47;;;22.70;99.90;;;;;;4446779;32;20073;-67
2022/08/18 05:29:14;;;;;;;1.62;0.77;;;22.70;99.90;;;;;;4445308;32;20123;-67
2022/08/18 05:31:39;;;;;;;2.53;0.93;;;22.80;99.90;;;;;;4449449;32;20093;-67
2022/08/18 05:34:05;;;;;;;4.80;1.00;;;22.90;99.90;;;;;;4452329;32;20508;-67
2022/08/18 05:36:46;;;;;;;0.62;0.62;;;22.90;99.90;;;;;;4457640;32;20119;-67
2022/08/18 05:39:36;;;;;;;1.12;0.73;;;22.90;99.90;;;;;;4446844;32;20481;-67
2022/08/18 05:42:05;;;;;;;;;;;23.00;99.90;;;;;;4450882;32;20069;-67
2022/08/18 05:44:35;;;;;;;4.25;0.57;;;23.00;99.90;;;;;;4459710;32;19951;-68
2022/08/18 05:47:23;;;;;;;0.60;0.60;;;23.10;99.90;;;;;;4454252;32;20403;-68
2022/08/18 05:49:50;;;;;;;0.60;0.60;;;23.10;99.90;;;;;;4447282;32;20065;-67
2022/08/18 05:52:29;;;;;;;2.25;1.17;;;23.10;99.90;;;;;;4446892;32;20446;-67
2022/08/18 05:57:50;;;;;;;1.17;1.05;;;23.30;99.90;;;;;;4437458;32;20073;-67
2022/08/18 06:00:19;;;;;;;5.00;0.67;;;23.20;99.90;;;;;;4438722;32;20195;-66
2022/08/18 06:02:54;;;;;;;0.62;0.60;;;23.30;99.90;;;;;;4439056;32;20353;-66
2022/08/18 06:05:27;;;;;;;0.60;0.60;;;23.40;99.90;;;;;;4443358;32;20124;-67
2022/08/18 06:07:57;;;;;;;0.47;0.43;;;23.50;99.90;;;;;;4451895;32;20068;-66
2022/08/18 06:10:24;;;;;;;0.88;0.82;;;23.70;99.90;;;;;;4461691;32;20080;-66
2022/08/18 06:12:52;;;;;;;1.25;1.05;;;23.80;99.90;;;;;;4455348;32;20060;-66
2022/08/18 06:15:39;;;;;;;2.55;1.17;;;23.80;99.90;;;;;;4457069;32;20410;-66
2022/08/18 06:18:20;;;;;;;7.80;1.73;;;23.70;99.90;;;;;;4450254;32;20096;-66
2022/08/18 06:21:05;;;;;;;;;;;23.70;99.90;;;;;;4451931;32;20081;-66
2022/08/18 06:23:41;;;;;;;0.55;0.50;;;23.80;99.90;;;;;;4451141;32;20332;-66
2022/08/18 06:26:18;;;;;;;5.75;2.05;;;23.90;99.90;;;;;;4448567;32;20843;-66
2022/08/18 06:28:56;;;;;;;0.57;0.55;;;23.90;99.90;;;;;;4458371;32;20053;-66
2022/08/18 06:31:32;;;;;;;12.27;2.17;;;23.90;99.90;;;;;;4449986;32;20507;-66
2022/08/18 06:34:09;;;;;;;0.70;0.70;;;23.90;99.90;;;;;;4449275;32;20052;-66
2022/08/18 06:36:48;;;;;;;0.80;0.80;;;24.00;99.90;;;;;;4441629;32;20058;-66
2022/08/18 06:39:25;;;;;;;1.60;0.73;;;24.00;99.90;;;;;;4458319;32;20450;-66
2022/08/18 06:41:52;;;;;;;2.55;1.05;;;24.20;99.90;;;;;;4448632;32;20084;-66
2022/08/18 06:44:30;;;;;;;0.98;0.88;;;24.10;99.90;;;;;;4446195;32;20076;-66
2022/08/18 06:47:14;;;;;;;10.55;1.12;;;24.30;99.90;;;;;;4446924;32;20126;-66
2022/08/18 06:49:53;;;;;;;0.57;0.57;;;24.20;99.90;;;;;;4452131;32;20402;-66
2022/08/18 06:52:24;;;;;;;5.45;1.60;;;24.30;99.90;;;;;;4441969;32;20070;-66
2022/08/18 06:54:50;;;;;;;1.48;1.05;;;24.40;99.90;;;;;;4442623;32;20493;-67
2022/08/18 06:57:37;;;;;;;1.23;0.98;;;24.40;99.90;;;;;;4444799;32;20559;-66
2022/08/18 07:00:22;;;;;;;2.17;0.98;;;24.50;99.90;;;;;;4437017;32;20150;-67
2022/08/18 07:02:53;;;;;;;0.43;0.43;;;24.60;99.90;;;;;;4440693;32;20447;-66
2022/08/18 07:05:25;;;;;;;1.02;0.93;;;24.60;99.90;;;;;;4444594;32;20553;-66
2022/08/18 07:08:27;;;;;;;1.00;0.60;;;24.70;99.90;;;;;;4444308;32;20134;-66
2022/08/18 07:10:53;;;;;;;4.53;1.05;;;24.70;99.90;;;;;;4444769;32;20085;-67
2022/08/18 07:13:26;;;;;;;0.55;0.55;;;24.70;99.90;;;;;;4444480;32;20411;-66
2022/08/18 07:16:13;;;;;;;0.95;0.77;;;24.70;99.90;;;;;;4445838;32;20089;-67
2022/08/18 07:18:38;;;;;;;0.30;0.30;;;24.70;99.90;;;;;;4445890;32;20160;-65
2022/08/18 07:21:04;;;;;;;0.88;0.65;;;24.90;99.90;;;;;;4441135;32;20579;-66
2022/08/18 07:23:37;;;;;;;0.57;0.50;;;24.90;99.90;;;;;;4445497;32;20103;-66
2022/08/18 07:26:09;;;;;;;1.00;0.90;;;25.00;99.90;;;;;;4448472;32;20080;-68
2022/08/18 07:28:43;;;;;;;3.72;1.20;;;25.00;99.90;;;;;;4437451;32;20457;-67
2022/08/18 07:31:18;;;;;;;0.52;0.50;;;25.00;99.90;;;;;;4426907;32;20156;-67
2022/08/18 07:33:51;;;;;;;8.73;2.03;;;25.00;99.90;;;;;;4453805;32;20068;-66
2022/08/18 07:36:20;;;;;;;0.60;0.60;;;25.00;99.90;;;;;;4437509;32;20140;-67
2022/08/18 07:38:52;;;;;;;11.20;1.75;;;25.10;99.90;;;;;;4447710;32;20068;-67
2022/08/18 07:41:23;;;;;;;0.80;0.80;;;25.00;99.90;;;;;;4449371;32;20064;-66
2022/08/18 07:43:58;;;;;;;0.50;0.50;;;25.10;99.90;;;;;;4448988;32;20064;-67
2022/08/18 07:46:35;;;;;;;1.27;0.68;;;25.10;99.90;;;;;;4449539;32;20085;-66
2022/08/18 07:49:01;;;;;;;0.60;0.57;;;25.20;99.90;;;;;;4452094;32;20210;-66
2022/08/18 07:51:48;;;;;;;0.35;0.35;;;25.30;99.90;;;;;;4443435;32;20080;-66
2022/08/18 07:54:35;;;;;;;1.27;0.55;;;25.30;99.90;;;;;;4446979;32;20457;-66
2022/08/18 07:57:27;;;;;;;0.60;0.60;;;25.30;99.90;;;;;;4440853;32;20597;-66
2022/08/18 08:00:03;;;;;;;1.50;0.70;;;25.40;99.90;;;;;;4443562;32;20216;-66
2022/08/18 08:02:33;;;;;;;1.80;1.37;;;25.40;99.90;;;;;;4448006;32;20064;-66
2022/08/18 08:05:20;;;;;;;0.75;0.75;;;25.50;99.90;;;;;;4450228;32;20090;-67
2022/08/18 08:07:54;;;;;;;0.37;0.37;;;25.40;99.90;;;;;;4443564;32;20119;-66
2022/08/18 08:10:31;;;;;;;0.30;0.30;;;25.50;99.90;;;;;;4442021;32;21109;-66
2022/08/18 08:13:07;;;;;;;1.25;0.90;;;25.60;99.90;;;;;;4455152;32;20084;-67
2022/08/18 08:15:48;;;;;;;1.75;1.40;;;25.70;99.90;;;;;;4439495;32;20076;-66
2022/08/18 08:18:39;;;;;;;1.45;0.88;;;25.70;99.90;;;;;;4445562;32;20172;-66
2022/08/18 08:21:10;;;;;;;0.62;0.62;;;25.80;99.90;;;;;;4441006;32;20089;-67
2022/08/18 08:23:56;;;;;;;2.17;0.98;;;25.80;99.90;;;;;;4441652;32;20126;-67
2022/08/18 08:26:33;;;;;;;2.20;1.12;;;25.80;99.90;;;;;;4442279;32;20599;-67
2022/08/18 08:29:23;;;;;;;4.05;0.90;;;25.80;99.90;;;;;;4450771;32;20293;-67
2022/08/18 08:31:56;;;;;;;0.50;0.50;;;25.90;99.90;;;;;;4440765;32;83199;-67
2022/08/18 08:34:53;;;;;;;2.30;1.17;;;25.90;99.90;;;;;;4445769;32;20097;-67
2022/08/18 08:37:37;;;;;;;1.65;0.85;;;25.90;99.90;;;;;;4435784;32;20118;-66
2022/08/18 08:40:15;;;;;;;0.82;0.55;;;25.90;99.90;;;;;;4434828;32;20158;-67
2022/08/18 08:42:53;;;;;;;8.10;1.08;;;25.90;99.90;;;;;;4431825;32;20508;-68
2022/08/18 08:45:40;;;;;;;0.80;0.80;;;25.90;99.90;;;;;;4444354;32;20127;-67
2022/08/18 08:48:27;;;;;;;2.40;1.35;;;25.90;99.90;;;;;;4430944;32;20532;-67
2022/08/18 08:51:18;;;;;;;2.03;1.02;;;26.00;99.90;;;;;;4444496;32;20089;-66
2022/08/18 08:53:49;;;;;;;0.77;0.70;;;26.00;99.90;;;;;;4446933;32;20072;-66
2022/08/18 08:56:28;;;;;;;0.57;0.45;;;26.20;99.90;;;;;;4428435;32;20063;-67
2022/08/18 08:58:59;;;;;;;1.45;0.75;;;26.30;99.90;;;;;;4435648;32;20481;-67
2022/08/18 09:01:45;;;;;;;6.70;1.00;;;26.40;99.90;;;;;;4434840;32;20069;-67
2022/08/18 09:04:22;;;;;;;1.10;0.70;;;26.40;99.90;;;;;;4443031;32;20069;-67
2022/08/18 09:07:04;;;;;;;0.62;0.60;;;26.50;99.90;;;;;;4453636;32;20073;-66
2022/08/18 09:10:06;;;;;;;0.70;0.60;;;26.60;99.90;;;;;;4444398;32;20065;-66
2022/08/18 09:13:00;;;;;;;1.02;0.75;;;26.60;99.90;;;;;;4435611;32;20088;-67
2022/08/18 09:15:40;;;;;;;1.00;0.68;;;26.70;99.90;;;;;;4434572;32;20183;-67
2022/08/18 09:18:43;;;;;;;0.80;0.57;;;26.90;99.90;;;;;;4444793;32;20532;-66
2022/08/18 09:21:23;;;;;;;5.47;2.17;;;27.00;99.90;;;;;;4436672;32;20244;-67
2022/08/18 09:23:52;;;;;;;0.85;0.60;;;27.10;99.90;;;;;;4448350;32;20059;-67
2022/08/18 09:26:40;;;;;;;0.85;0.80;;;27.20;99.90;;;;;;4419293;32;20188;-66
2022/08/18 09:29:44;;;;;;;1.17;1.08;;;27.40;99.90;;;;;;4426431;32;20548;-67
2022/08/18 09:32:27;;;;;;;3.65;0.62;;;27.70;99.90;;;;;;4425520;32;20065;-67
2022/08/18 09:35:07;;;;;;;0.82;0.70;;;28.00;99.90;;;;;;4445845;32;20718;-67
2022/08/18 09:41:48;;;;;;;1.58;0.70;;;28.20;99.90;;;;;;4430432;32;20100;-66
2022/08/18 09:43:38;;;;;;;0.62;0.47;;;28.20;99.90;;;;;;4433820;32;20430;-66
2022/08/18 09:46:06;;;;;;;3.15;0.90;;;28.20;99.90;;;;;;4437379;32;20077;-67
2022/08/18 09:48:38;;;;;;;1.65;0.82;;;28.30;99.90;;;;;;4438045;32;20220;-66
2022/08/18 09:51:31;;;;;;;0.95;0.50;;;28.40;99.90;;;;;;4436166;32;20643;-67
2022/08/18 09:54:08;;;;;;;4.82;1.50;;;28.50;99.90;;;;;;4450261;32;20496;-66
2022/08/18 09:56:52;;;;;;;1.35;0.95;;;28.60;99.90;;;;;;4441335;32;20187;-66
2022/08/18 09:59:36;;;;;;;0.80;0.50;;;28.70;99.90;;;;;;4454305;32;20086;-67
2022/08/18 10:02:06;;;;;;;1.17;0.95;;;28.90;99.70;;;;;;4452932;32;20084;-67
2022/08/18 10:04:47;;;;;;;13.87;0.67;;;28.90;99.20;;;;;;4454016;32;20056;-67
2022/08/18 10:07:34;;;;;;;0.52;0.52;;;29.20;99.00;;;;;;4431571;32;20205;-67
2022/08/18 10:10:12;;;;;;;1.23;0.65;;;29.30;98.60;;;;;;4437820;32;20088;-67
2022/08/18 10:12:56;;;;;;;0.60;0.60;;;29.40;98.10;;;;;;4450515;32;20481;-68
2022/08/18 10:15:36;;;;;;;1.00;0.68;;;29.20;98.90;;;;;;4445910;32;20093;-67
2022/08/18 10:18:10;;;;;;;1.65;0.73;;;29.20;98.40;;;;;;4447095;32;20084;-67
2022/08/18 10:20:54;;;;;;;0.10;0.10;;;29.30;99.30;;;;;;4446609;32;20068;-67
2022/08/18 10:23:49;;;;;;;2.92;1.40;;;29.50;98.70;;;;;;4433460;32;20061;-68
2022/08/18 10:26:33;;;;;;;0.43;0.43;;;29.90;98.20;;;;;;4426549;32;20136;-68
2022/08/18 10:29:02;;;;;;;13.25;1.55;;;30.40;96.70;;;;;;4440368;32;20454;-68
2022/08/18 10:31:30;;;;;;;1.65;1.30;;;30.50;96.70;;;;;;4434928;32;20073;-67
2022/08/18 10:34:07;;;;;;;0.35;0.25;;;30.60;95.90;;;;;;4432367;32;20112;-68
2022/08/18 10:36:37;;;;;;;0.82;0.57;;;30.70;95.40;;;;;;4446040;32;20476;-68
2022/08/18 10:39:06;;;;;;;0.88;0.70;;;30.70;94.60;;;;;;4451217;32;20117;-67
2022/08/18 10:41:35;;;;;;;1.10;0.70;;;30.90;94.40;;;;;;4439393;32;20536;-67
2022/08/18 10:44:02;;;;;;;3.62;1.10;;;31.10;93.90;;;;;;4451416;32;20088;-67
2022/08/18 10:46:35;;;;;;;0.85;0.73;;;31.50;92.70;;;;;;4444394;32;20092;-67
2022/08/18 10:49:16;;;;;;;6.70;2.08;;;31.90;91.70;;;;;;4432336;32;20541;-68
2022/08/18 10:52:03;;;;;;;0.40;0.40;;;32.00;91.10;;;;;;4433995;32;20096;-68
2022/08/18 10:54:56;;;;;;;14.80;0.60;;;32.10;91.10;;;;;;4444987;32;20528;-67
2022/08/18 10:57:34;;;;;;;2.58;1.00;;;32.40;91.50;;;;;;4442880;32;20089;-67
2022/08/18 11:00:12;;;;;;;2.37;0.73;;;32.80;90.90;;;;;;4446357;32;20561;-67
2022/08/18 11:02:56;;;;;;;0.70;0.70;;;32.90;90.70;;;;;;4450861;32;20462;-68
2022/08/18 11:05:25;;;;;;;2.40;1.05;;;32.90;89.20;;;;;;4445538;32;20173;-68
2022/08/18 11:07:57;;;;;;;1.30;0.68;;;32.90;88.80;;;;;;4434425;32;21448;-68
2022/08/18 11:10:37;;;;;;;0.50;0.37;;;33.10;89.70;;;;;;4448622;32;20069;-68
2022/08/18 11:13:16;;;;;;;0.93;0.65;;;33.30;87.10;;;;;;4454898;32;20184;-68
2022/08/18 11:15:52;;;;;;;0.65;0.37;;;33.80;88.00;;;;;;4449074;32;20077;-68
2022/08/18 11:18:38;;;;;;;5.12;1.55;;;33.90;85.60;;;;;;4446688;32;20162;-68
2022/08/18 11:21:25;;;;;;;1.87;0.75;;;34.10;84.60;;;;;;4439795;32;20139;-67
2022/08/18 11:24:14;;;;;;;0.75;0.73;;;34.50;83.20;;;;;;4431392;32;20077;-67
2022/08/18 11:26:49;;;;;;;0.95;0.85;;;34.30;83.30;;;;;;4428342;32;20073;-68
2022/08/18 11:29:39;;;;;;;0.40;0.40;;;34.30;82.70;;;;;;4445817;32;20069;-68
2022/08/18 11:32:08;;;;;;;0.45;0.40;;;34.40;83.80;;;;;;4424633;32;20080;-68
2022/08/18 11:34:37;;;;;;;2.62;0.60;;;34.40;83.80;;;;;;4445022;32;20143;-68
2022/08/18 11:37:06;;;;;;;0.85;0.57;;;34.80;82.30;;;;;;4434476;32;20109;-67
2022/08/18 11:39:32;;;;;;;0.40;0.40;;;34.80;80.70;;;;;;4438493;32;20914;-67
2022/08/18 11:41:58;;;;;;;0.55;0.52;;;34.90;81.00;;;;;;4441608;32;20140;-67
2022/08/18 11:44:30;;;;;;;0.30;0.30;;;35.20;78.00;;;;;;4439390;32;20068;-67
2022/08/18 11:47:15;;;;;;;0.43;0.43;;;35.40;77.40;;;;;;4442589;32;20089;-67
2022/08/18 11:49:53;;;;;;;0.32;0.32;;;35.70;78.20;;;;;;4433784;32;20072;-67
2022/08/18 11:52:25;;;;;;;0.75;0.70;;;35.90;74.30;;;;;;4436245;32;20149;-67
2022/08/18 11:54:51;;;;;;;0.55;0.55;;;35.50;77.90;;;;;;4440052;32;20061;-67
2022/08/18 11:57:42;;;;;;;1.15;0.80;;;35.70;77.50;;;;;;4427148;32;20612;-67
2022/08/18 12:00:47;;;;;;;0.40;0.40;;;35.60;76.00;;;;;;4432155;32;20524;-68
2022/08/18 12:03:22;;;;;;;0.50;0.50;;;34.90;76.50;;;;;;4438850;32;20085;-67
2022/08/18 12:05:52;;;;;;;4.37;1.12;;;34.60;78.80;;;;;;4434311;32;20081;-67
2022/08/18 12:08:22;;;;;;;0.80;0.80;;;34.40;78.50;;;;;;4444642;32;20089;-67
2022/08/18 12:10:47;;;;;;;0.57;0.57;;;34.50;75.80;;;;;;4440904;32;20096;-67
2022/08/18 12:13:22;;;;;;;0.73;0.68;;;34.90;76.40;;;;;;4439477;32;20519;-67
2022/08/18 12:16:09;;;;;;;0.25;0.25;;;35.30;74.20;;;;;;4433014;32;20631;-67
2022/08/18 12:18:35;;;;;;;1.58;0.80;;;35.80;73.40;;;;;;4435837;32;20101;-67
2022/08/18 12:21:00;;;;;;;0.37;0.37;;;36.30;71.20;;;;;;4440676;32;20073;-67
2022/08/18 12:23:26;;;;;;;0.52;0.52;;;36.70;69.80;;;;;;4441248;32;20126;-69
2022/08/18 12:25:52;;;;;;;0.30;0.30;;;36.80;69.10;;;;;;4432323;32;20081;-66
2022/08/18 12:28:20;;;;;;;0.28;0.28;;;36.90;67.50;;;;;;4426367;32;20105;-67
2022/08/18 12:30:45;;;;;;;0.20;0.20;;;37.00;66.60;;;;;;4435474;32;20516;-68
2022/08/18 12:33:11;;;;;;;0.73;0.73;;;37.30;66.60;;;;;;4437391;32;20188;-67
2022/08/18 12:35:36;;;;;;;0.55;0.43;;;38.00;65.40;;;;;;4443819;32;20097;-67
2022/08/18 12:38:01;;;;;;;0.40;0.40;;;38.00;63.90;;;;;;4441658;32;20159;-68
2022/08/18 12:40:28;;;;;;;2.15;0.85;;;38.30;66.80;;;;;;4440047;32;20123;-67
2022/08/18 12:42:53;;;;;;;0.55;0.55;;;38.20;68.10;;;;;;4443895;32;20697;-67
2022/08/18 12:45:19;;;;;;;0.50;0.50;;;37.80;70.10;;;;;;4443750;32;20120;-67
2022/08/18 12:47:45;;;;;;;0.40;0.40;;;37.70;69.60;;;;;;4439526;32;20252;-67
2022/08/18 12:50:11;;;;;;;0.62;0.60;;;37.80;69.90;;;;;;4438001;32;20371;-67
2022/08/18 12:52:36;;;;;;;0.70;0.40;;;38.60;67.00;;;;;;4436164;32;20576;-67
2022/08/18 12:55:02;;;;;;;0.43;0.43;;;39.10;68.30;;;;;;4437336;32;20081;-67
2022/08/18 12:57:28;;;;;;;0.60;0.60;;;38.30;66.40;;;;;;4442733;32;20119;-67
2022/08/18 12:59:54;;;;;;;1.90;0.88;;;38.10;69.70;;;;;;4439534;32;20072;-67
2022/08/18 13:02:20;;;;;;;1.45;0.60;;;38.20;68.80;;;;;;4440893;32;20076;-67
2022/08/18 13:04:46;;;;;;;0.57;0.57;;;38.30;66.00;;;;;;4437824;32;20101;-69
2022/08/18 13:07:14;;;;;;;0.75;0.73;;;38.50;65.30;;;;;;4432587;32;20523;-69
2022/08/18 13:09:42;;;;;;;2.50;1.30;;;38.50;65.70;;;;;;4432250;32;20065;-69
2022/08/18 13:12:08;;;;;;;2.22;1.05;;;38.60;65.90;;;;;;4437036;32;20084;-69
2022/08/18 13:14:34;;;;;;;0.40;0.40;;;38.10;66.00;;;;;;4435282;32;20453;-70
2022/08/18 13:17:00;;;;;;;0.37;0.37;;;37.70;66.20;;;;;;4436131;32;20081;-69
2022/08/18 13:19:27;;;;;;;1.23;0.82;;;37.40;68.50;;;;;;4438779;32;20496;-70
2022/08/18 13:21:53;;;;;;;0.57;0.50;;;37.20;66.50;;;;;;4442640;32;20230;-69
2022/08/18 13:24:18;;;;;;;0.70;0.50;;;36.70;67.90;;;;;;4443206;32;20211;-69